Time;durP1;ratioP1;P1;durP2;ratioP2;P2;SDS_P1;SDS_P2;PMS_P1;PMS_P2;Temp;Humidity;BMP_temperature;BMP_pressure;BME280_temperature;BME280_humidity;BME280_pressure;Samples;Min_cycle;Max_cycle;Signal;HPM_P1;HPM_P2
2023/10/20 00:01:02;;;;;;;2.30;2.10;;;18.40;77.10;;;;;;5018120;28;20238;-70
2023/10/20 00:03:28;;;;;;;2.45;1.90;;;18.50;77.20;;;;;;5001282;28;20238;-70
2023/10/20 00:05:54;;;;;;;3.05;2.20;;;18.40;77.10;;;;;;5032373;28;20206;-70
2023/10/20 00:08:19;;;;;;;2.72;2.33;;;18.40;77.10;;;;;;5014455;28;20188;-70
2023/10/20 00:10:45;;;;;;;2.05;1.95;;;18.40;77.10;;;;;;5032038;28;20665;-70
2023/10/20 00:13:11;;;;;;;2.22;2.00;;;18.40;77.10;;;;;;5041300;28;20211;-70
2023/10/20 00:15:37;;;;;;;2.38;2.17;;;18.40;77.10;;;;;;5025806;28;20194;-70
2023/10/20 00:18:03;;;;;;;2.08;1.88;;;18.40;77.10;;;;;;5021995;28;20195;-70
2023/10/20 00:20:29;;;;;;;2.22;2.03;;;18.40;77.10;;;;;;5021744;28;20201;-70
2023/10/20 00:22:55;;;;;;;2.80;2.13;;;18.40;77.10;;;;;;5020821;28;20171;-70
2023/10/20 00:25:22;;;;;;;2.13;1.92;;;18.40;77.10;;;;;;5028381;28;20571;-70
2023/10/20 00:27:48;;;;;;;2.50;2.30;;;18.40;77.10;;;;;;5020190;28;20562;-70
2023/10/20 00:30:14;;;;;;;1.77;1.67;;;18.40;77.10;;;;;;4997336;28;20188;-70
2023/10/20 00:32:41;;;;;;;3.28;2.10;;;18.40;77.10;;;;;;5008163;28;20174;-70
2023/10/20 00:35:13;;;;;;;2.33;2.10;;;18.50;77.20;;;;;;5016655;28;20204;-70
2023/10/20 00:37:38;;;;;;;2.40;2.20;;;18.40;77.90;;;;;;5034851;28;20256;-70
2023/10/20 00:40:09;;;;;;;2.80;2.20;;;18.40;77.10;;;;;;5030061;28;20585;-70
2023/10/20 00:42:35;;;;;;;2.20;2.00;;;18.40;77.10;;;;;;5007126;28;20277;-70
2023/10/20 00:45:02;;;;;;;2.17;2.08;;;18.40;77.10;;;;;;5030448;28;20229;-70
2023/10/20 00:47:29;;;;;;;2.05;1.85;;;18.40;77.10;;;;;;5028457;28;20203;-70
2023/10/20 00:49:57;;;;;;;1.95;1.80;;;18.40;77.10;;;;;;5030641;28;20194;-70
2023/10/20 00:52:25;;;;;;;1.98;1.88;;;18.40;77.10;;;;;;5039590;28;20248;-70
2023/10/20 00:54:53;;;;;;;1.75;1.65;;;18.40;77.10;;;;;;4999435;28;20196;-70
2023/10/20 00:57:19;;;;;;;1.70;1.60;;;18.40;77.10;;;;;;5021287;28;20194;-70
2023/10/20 00:59:44;;;;;;;2.40;2.10;;;18.40;77.10;;;;;;5024095;28;20189;-70
2023/10/20 01:02:12;;;;;;;1.90;1.80;;;18.40;77.10;;;;;;5018713;28;20263;-70
2023/10/20 01:04:38;;;;;;;2.25;2.05;;;18.40;77.10;;;;;;5029445;28;20212;-70
2023/10/20 01:07:04;;;;;;;1.83;1.70;;;18.40;77.10;;;;;;5014231;28;20246;-70
2023/10/20 01:09:30;;;;;;;2.20;2.00;;;18.40;77.10;;;;;;5037881;28;20210;-70
2023/10/20 01:11:56;;;;;;;1.88;1.77;;;18.40;77.10;;;;;;4996547;28;20184;-70
2023/10/20 01:14:22;;;;;;;2.17;1.98;;;18.40;77.10;;;;;;5006194;28;20217;-70
2023/10/20 01:16:48;;;;;;;1.83;1.73;;;18.40;77.30;;;;;;4997704;28;20321;-70
2023/10/20 01:19:14;;;;;;;2.10;2.00;;;18.40;77.10;;;;;;5026027;28;20202;-70
2023/10/20 01:21:40;;;;;;;2.35;2.15;;;18.40;77.10;;;;;;5013087;28;20206;-70
2023/10/20 01:24:07;;;;;;;2.20;2.00;;;18.40;77.10;;;;;;5003019;28;20202;-70
2023/10/20 01:26:33;;;;;;;1.95;1.80;;;18.40;77.10;;;;;;5011477;28;20572;-70
2023/10/20 01:28:59;;;;;;;1.90;1.80;;;18.40;77.10;;;;;;5023389;28;20179;-70
2023/10/20 01:31:25;;;;;;;2.75;2.08;;;18.40;77.10;;;;;;5033947;28;20273;-70
2023/10/20 01:33:52;;;;;;;1.90;1.80;;;18.40;77.10;;;;;;5007824;28;20215;-70
2023/10/20 01:36:18;;;;;;;2.33;2.08;;;18.40;77.10;;;;;;5009855;28;20197;-70
2023/10/20 01:38:44;;;;;;;2.20;2.05;;;18.40;77.10;;;;;;5012509;28;20190;-70
2023/10/20 01:41:10;;;;;;;2.25;2.05;;;18.40;77.10;;;;;;4997983;28;20220;-70
2023/10/20 01:43:36;;;;;;;2.00;1.90;;;18.40;77.10;;;;;;5027085;28;20239;-70
2023/10/20 01:46:03;;;;;;;2.47;2.25;;;18.40;77.10;;;;;;5028080;28;20202;-70
2023/10/20 01:48:32;;;;;;;2.40;1.90;;;18.40;77.10;;;;;;5004529;28;20231;-70
2023/10/20 01:51:02;;;;;;;2.08;1.98;;;18.40;77.10;;;;;;5040345;28;20273;-70
2023/10/20 01:53:27;;;;;;;2.03;1.77;;;18.40;77.10;;;;;;4999402;28;20207;-70
2023/10/20 01:55:53;;;;;;;1.75;1.65;;;18.40;77.10;;;;;;5010459;28;20199;-70
2023/10/20 01:58:20;;;;;;;2.80;1.83;;;18.40;77.10;;;;;;5003014;28;20202;-70
2023/10/20 02:00:50;;;;;;;2.38;2.00;;;18.40;77.10;;;;;;5025293;28;20187;-70
2023/10/20 02:03:17;;;;;;;2.35;2.20;;;18.40;77.10;;;;;;5008715;28;20280;-70
2023/10/20 02:05:43;;;;;;;1.83;1.73;;;18.40;77.10;;;;;;5017568;28;20218;-70
2023/10/20 02:08:10;;;;;;;2.10;1.90;;;18.40;77.10;;;;;;5027927;28;20186;-70
2023/10/20 02:10:37;;;;;;;2.22;1.88;;;18.40;77.10;;;;;;5024655;28;20630;-70
2023/10/20 02:13:03;;;;;;;1.83;1.73;;;18.40;77.10;;;;;;5022498;28;20184;-70
2023/10/20 02:15:32;;;;;;;2.25;2.00;;;18.40;77.10;;;;;;5027943;28;20207;-70
2023/10/20 02:17:58;;;;;;;2.20;1.90;;;18.40;77.10;;;;;;5027465;28;20672;-70
2023/10/20 02:20:25;;;;;;;2.97;2.50;;;18.40;77.10;;;;;;5031042;28;20206;-70
2023/10/20 02:22:53;;;;;;;2.17;1.98;;;18.40;77.10;;;;;;5030411;28;20187;-70
2023/10/20 02:25:20;;;;;;;1.88;1.77;;;18.40;77.10;;;;;;5011682;28;20293;-70
2023/10/20 02:27:47;;;;;;;2.15;1.90;;;18.40;77.10;;;;;;5030339;28;20210;-70
2023/10/20 02:30:15;;;;;;;1.98;1.88;;;18.40;77.10;;;;;;5000936;28;20184;-70
2023/10/20 02:32:42;;;;;;;2.88;2.25;;;18.40;77.10;;;;;;5024106;28;20214;-70
2023/10/20 02:35:08;;;;;;;2.10;1.90;;;18.40;77.10;;;;;;5029074;28;20206;-70
2023/10/20 02:37:35;;;;;;;2.42;2.22;;;18.40;77.10;;;;;;5028209;28;20194;-70
2023/10/20 02:40:04;;;;;;;2.75;1.98;;;18.40;77.10;;;;;;5025303;28;20183;-70
2023/10/20 02:42:34;;;;;;;2.10;1.90;;;18.40;77.10;;;;;;5026359;28;20241;-70
2023/10/20 02:45:00;;;;;;;2.20;2.08;;;18.40;77.10;;;;;;5009785;28;20206;-70
2023/10/20 02:47:26;;;;;;;2.50;2.30;;;18.40;77.10;;;;;;5012290;28;20246;-70
2023/10/20 02:49:55;;;;;;;2.22;2.03;;;18.40;77.10;;;;;;5016825;28;20183;-69
2023/10/20 02:52:23;;;;;;;2.20;1.90;;;18.40;77.10;;;;;;5000154;28;20190;-70
2023/10/20 02:54:56;;;;;;;2.25;2.15;;;18.40;77.10;;;;;;5016763;28;20300;-70
2023/10/20 02:57:22;;;;;;;2.20;2.10;;;18.40;77.10;;;;;;5016582;28;20270;-70
2023/10/20 02:59:49;;;;;;;2.10;1.90;;;18.40;77.10;;;;;;5000397;28;20191;-69
2023/10/20 03:02:22;;;;;;;2.40;2.20;;;18.40;77.10;;;;;;5000082;28;20207;-70
2023/10/20 03:04:53;;;;;;;2.70;2.40;;;18.40;77.10;;;;;;5034019;28;20211;-70
2023/10/20 03:07:24;;;;;;;2.55;2.35;;;18.40;77.10;;;;;;5016671;28;20223;-70
2023/10/20 03:09:53;;;;;;;2.33;2.13;;;18.40;77.10;;;;;;5016278;28;20532;-70
2023/10/20 03:12:19;;;;;;;2.50;2.00;;;18.40;77.10;;;;;;5015309;28;20200;-70
2023/10/20 03:14:46;;;;;;;2.13;1.90;;;18.40;77.10;;;;;;5033761;28;20203;-70
2023/10/20 03:17:12;;;;;;;2.42;2.25;;;18.40;77.10;;;;;;5015957;28;20194;-70
2023/10/20 03:19:40;;;;;;;4.00;2.28;;;18.40;77.10;;;;;;4999842;28;20192;-70
2023/10/20 03:22:06;;;;;;;2.40;2.20;;;18.40;77.10;;;;;;5013942;28;20214;-70
2023/10/20 03:24:32;;;;;;;2.00;1.90;;;18.40;77.10;;;;;;5016168;28;20210;-70
2023/10/20 03:26:58;;;;;;;2.83;2.00;;;18.40;77.10;;;;;;5012824;28;20299;-70
2023/10/20 03:29:25;;;;;;;2.10;2.00;;;18.40;77.10;;;;;;4999607;28;20285;-70
2023/10/20 03:31:51;;;;;;;2.00;1.90;;;18.40;77.10;;;;;;5015932;28;20191;-70
2023/10/20 03:34:17;;;;;;;2.38;2.17;;;18.40;77.10;;;;;;5015844;28;20207;-70
2023/10/20 03:36:43;;;;;;;2.30;2.10;;;18.40;77.10;;;;;;5015260;28;20279;-70
2023/10/20 03:39:21;;;;;;;2.58;2.38;;;18.40;77.10;;;;;;5033435;28;20187;-70
2023/10/20 03:41:51;;;;;;;2.80;2.40;;;18.40;77.10;;;;;;4999688;28;20195;-70
2023/10/20 03:44:17;;;;;;;2.10;2.00;;;18.40;77.10;;;;;;5033117;28;20222;-70
2023/10/20 03:46:49;;;;;;;2.80;2.30;;;18.40;77.10;;;;;;5015837;28;20207;-70
2023/10/20 03:49:16;;;;;;;2.67;2.08;;;18.40;77.10;;;;;;5015627;28;20538;-69
2023/10/20 03:51:51;;;;;;;2.25;2.15;;;18.40;77.20;;;;;;5033119;28;20179;-70
2023/10/20 03:54:18;;;;;;;2.40;2.20;;;18.40;77.10;;;;;;5014063;28;20214;-70
2023/10/20 03:56:45;;;;;;;2.35;2.22;;;18.30;77.00;;;;;;5017105;28;20183;-70
2023/10/20 03:59:13;;;;;;;2.53;2.33;;;18.40;77.10;;;;;;5004957;28;20182;-70
2023/10/20 04:01:39;;;;;;;2.65;2.45;;;18.40;77.20;;;;;;5041958;28;20187;-70
2023/10/20 04:04:10;;;;;;;2.97;2.78;;;18.40;77.20;;;;;;5028433;28;20211;-70
2023/10/20 04:06:36;;;;;;;3.38;2.55;;;18.40;77.10;;;;;;4999206;28;20215;-70
2023/10/20 04:09:08;;;;;;;2.20;2.10;;;18.40;77.10;;;;;;5018115;28;20187;-70
2023/10/20 04:11:35;;;;;;;2.45;2.25;;;18.40;77.10;;;;;;4999146;28;20195;-70
2023/10/20 04:14:07;;;;;;;2.60;2.40;;;18.40;77.10;;;;;;5006510;28;20747;-70
2023/10/20 04:16:41;;;;;;;2.22;2.10;;;18.40;77.10;;;;;;5007164;28;20232;-69
2023/10/20 04:19:14;;;;;;;2.47;2.28;;;18.40;77.20;;;;;;4999916;28;20510;-70
2023/10/20 04:21:43;;;;;;;2.60;2.40;;;18.40;77.10;;;;;;5013377;28;20203;-69
2023/10/20 04:24:10;;;;;;;2.45;2.25;;;18.40;77.10;;;;;;5020550;28;20225;-69
2023/10/20 04:26:43;;;;;;;2.15;2.00;;;18.40;77.10;;;;;;5014804;28;20211;-69
2023/10/20 05:01:26;;;;;;;2.50;2.30;;;18.40;77.10;;;;;;5035010;28;20186;-69
2023/10/20 05:03:57;;;;;;;2.50;2.22;;;18.40;77.10;;;;;;5022039;28;20217;-68
2023/10/20 05:06:26;;;;;;;2.67;2.45;;;18.40;77.10;;;;;;5020365;28;20208;-69
2023/10/20 05:08:53;;;;;;;2.83;2.47;;;18.40;77.20;;;;;;5020233;28;20179;-70
2023/10/20 05:11:19;;;;;;;2.88;2.63;;;18.40;77.20;;;;;;5010952;28;20217;-70
2023/10/20 05:13:45;;;;;;;3.10;2.80;;;18.40;77.10;;;;;;5039755;28;20207;-69
2023/10/20 05:16:12;;;;;;;2.25;2.05;;;18.40;77.10;;;;;;5021117;28;20681;-69
2023/10/20 05:18:42;;;;;;;2.30;2.10;;;18.40;77.10;;;;;;5017573;28;20183;-69
2023/10/20 05:21:11;;;;;;;2.55;2.35;;;18.40;77.20;;;;;;5017441;28;20179;-70
2023/10/20 05:23:38;;;;;;;3.03;2.55;;;18.40;77.20;;;;;;5031311;28;20250;-70
2023/10/20 05:26:04;;;;;;;2.75;2.40;;;18.40;78.00;;;;;;5027947;28;20216;-70
2023/10/20 05:28:33;;;;;;;2.50;2.30;;;18.40;77.10;;;;;;5030533;28;20228;-70
2023/10/20 05:30:59;;;;;;;2.47;2.28;;;18.40;77.10;;;;;;5031784;28;20195;-69
2023/10/20 05:33:26;;;;;;;2.65;2.45;;;18.40;77.20;;;;;;5010959;28;20214;-70
2023/10/20 05:35:53;;;;;;;3.90;2.30;;;18.40;77.20;;;;;;5037427;28;20190;-69
2023/10/20 05:38:19;;;;;;;2.70;2.50;;;18.40;77.10;;;;;;5004822;28;20194;-69
2023/10/20 05:40:56;;;;;;;2.60;2.40;;;18.40;77.10;;;;;;5020165;28;20203;-69
2023/10/20 05:43:24;;;;;;;3.33;3.03;;;18.40;77.10;;;;;;5037825;28;20206;-70
2023/10/20 05:45:50;;;;;;;2.60;2.40;;;18.40;77.10;;;;;;5040289;28;20224;-69
2023/10/20 05:48:16;;;;;;;3.05;2.85;;;18.40;77.10;;;;;;5007240;28;20280;-69
2023/10/20 05:50:42;;;;;;;3.80;2.75;;;18.40;77.20;;;;;;5006081;28;20670;-69
2023/10/20 05:53:08;;;;;;;2.60;2.40;;;18.40;77.20;;;;;;5017684;28;20207;-69
2023/10/20 05:55:34;;;;;;;3.03;2.83;;;18.40;77.10;;;;;;5037824;28;20190;-70
2023/10/20 05:58:00;;;;;;;3.10;2.90;;;18.40;77.20;;;;;;5008309;28;20238;-69
2023/10/20 06:00:26;;;;;;;2.95;2.72;;;18.40;77.10;;;;;;5022723;28;20282;-69
2023/10/20 06:02:52;;;;;;;2.90;2.60;;;18.40;77.20;;;;;;5025801;28;20183;-69
2023/10/20 06:05:18;;;;;;;2.97;2.72;;;18.40;77.10;;;;;;5021054;28;20274;-69
2023/10/20 06:07:44;;;;;;;2.72;2.50;;;18.40;77.10;;;;;;5024592;28;20281;-70
2023/10/20 06:10:13;;;;;;;2.90;2.70;;;18.40;77.10;;;;;;5004000;28;20322;-69
2023/10/20 06:12:39;;;;;;;2.92;2.53;;;18.40;77.10;;;;;;5036239;28;20214;-69
2023/10/20 06:15:09;;;;;;;2.85;2.60;;;18.40;77.10;;;;;;5019865;28;20207;-69
2023/10/20 06:17:35;;;;;;;2.70;2.50;;;18.40;77.10;;;;;;5046944;28;20182;-70
2023/10/20 06:20:06;;;;;;;2.72;2.53;;;18.40;77.10;;;;;;5023398;28;20195;-69
2023/10/20 06:22:32;;;;;;;3.20;2.90;;;18.40;77.10;;;;;;5024924;28;20183;-69
2023/10/20 06:24:59;;;;;;;2.95;2.75;;;18.40;77.10;;;;;;5037999;28;20246;-69
2023/10/20 06:27:25;;;;;;;3.40;3.13;;;18.40;77.10;;;;;;5016380;28;20299;-70
2023/10/20 06:30:06;;;;;;;3.10;2.80;;;18.40;77.10;;;;;;5020169;28;20179;-69
2023/10/20 06:32:42;;;;;;;3.10;2.90;;;18.40;77.10;;;;;;5021820;28;20187;-69
2023/10/20 06:35:09;;;;;;;3.00;2.70;;;18.40;77.10;;;;;;5039319;28;20236;-69
2023/10/20 06:38:00;;;;;;;3.13;2.83;;;18.40;77.10;;;;;;5039405;28;20576;-70
2023/10/20 06:40:26;;;;;;;3.30;3.00;;;18.40;77.10;;;;;;5039660;28;20217;-69
2023/10/20 06:42:52;;;;;;;4.03;3.33;;;18.40;77.10;;;;;;5019660;28;20199;-69
2023/10/20 06:45:18;;;;;;;3.40;3.10;;;18.40;77.10;;;;;;5002585;28;20183;-69
2023/10/20 06:47:44;;;;;;;5.13;3.20;;;18.40;77.10;;;;;;5016608;28;20269;-69
2023/10/20 06:50:10;;;;;;;3.70;3.40;;;18.40;77.10;;;;;;5035750;28;20190;-69
2023/10/20 06:52:36;;;;;;;3.50;3.20;;;18.40;77.10;;;;;;5018065;28;20579;-69
2023/10/20 06:55:07;;;;;;;3.38;3.08;;;18.40;77.10;;;;;;5037413;28;20207;-69
2023/10/20 06:57:33;;;;;;;3.20;2.90;;;18.40;77.10;;;;;;5030185;28;20643;-69
2023/10/20 07:00:00;;;;;;;4.07;3.67;;;18.40;77.10;;;;;;5018086;28;20199;-69
2023/10/20 07:02:25;;;;;;;3.63;3.33;;;18.40;77.10;;;;;;5017978;28;20182;-69
2023/10/20 07:04:51;;;;;;;3.50;3.20;;;18.40;77.10;;;;;;5016658;28;20203;-69
2023/10/20 07:07:18;;;;;;;3.50;3.17;;;18.40;77.10;;;;;;5001451;28;20208;-69
2023/10/20 07:09:47;;;;;;;3.67;3.38;;;18.40;77.10;;;;;;5034007;28;20193;-70
2023/10/20 07:12:14;;;;;;;3.95;3.20;;;18.40;77.10;;;;;;5015999;28;20551;-69
2023/10/20 07:14:43;;;;;;;4.00;3.70;;;18.40;77.10;;;;;;5017637;28;20213;-69
2023/10/20 07:17:09;;;;;;;3.60;3.30;;;18.40;77.90;;;;;;5017940;28;20246;-69
2023/10/20 07:19:35;;;;;;;3.88;3.58;;;18.40;77.10;;;;;;5022113;28;20269;-70
2023/10/20 07:22:04;;;;;;;3.88;3.58;;;18.40;77.10;;;;;;5018977;28;20183;-69
2023/10/20 07:24:31;;;;;;;3.75;3.45;;;18.40;77.10;;;;;;5035263;28;20199;-69
2023/10/20 07:26:58;;;;;;;4.65;3.97;;;18.40;77.10;;;;;;5018224;28;20350;-69
2023/10/20 07:29:24;;;;;;;3.60;3.22;;;18.40;77.10;;;;;;5033730;28;20187;-70
2023/10/20 07:31:50;;;;;;;3.75;3.45;;;18.40;77.10;;;;;;5034741;28;20190;-70
2023/10/20 07:34:16;;;;;;;4.47;4.07;;;18.40;77.10;;;;;;5034286;28;20232;-69
2023/10/20 07:36:43;;;;;;;4.90;4.43;;;18.40;77.10;;;;;;5015572;28;20183;-70
2023/10/20 07:39:09;;;;;;;4.00;3.60;;;18.40;77.10;;;;;;5015676;28;20187;-69
2023/10/20 07:41:35;;;;;;;4.32;3.92;;;18.40;77.10;;;;;;5033407;28;20177;-69
2023/10/20 07:44:02;;;;;;;4.40;3.90;;;18.40;77.10;;;;;;5016347;28;20322;-69
2023/10/20 07:46:29;;;;;;;4.10;3.80;;;18.40;77.10;;;;;;5033154;28;20214;-69
2023/10/20 07:48:54;;;;;;;4.38;3.97;;;18.40;77.10;;;;;;5023805;28;20248;-69
2023/10/20 07:51:21;;;;;;;5.07;4.35;;;18.40;77.90;;;;;;5015096;28;20666;-69
2023/10/20 07:53:47;;;;;;;4.47;4.07;;;18.40;77.10;;;;;;5022648;28;20251;-69
2023/10/20 07:56:13;;;;;;;4.07;3.70;;;18.40;77.10;;;;;;5019785;28;20183;-70
2023/10/20 07:58:39;;;;;;;4.70;4.25;;;18.40;77.10;;;;;;5020532;28;20238;-69
2023/10/20 08:01:06;;;;;;;4.70;4.30;;;18.40;77.10;;;;;;5041915;28;20187;-69
2023/10/20 08:03:32;;;;;;;4.95;4.18;;;18.40;77.10;;;;;;5033556;28;20704;-70
2023/10/20 08:06:02;;;;;;;4.72;4.32;;;18.40;77.10;;;;;;5015853;28;20659;-70
2023/10/20 08:08:29;;;;;;;4.60;4.20;;;18.40;77.10;;;;;;4993927;28;20230;-70
2023/10/20 08:10:56;;;;;;;4.68;4.28;;;18.40;77.10;;;;;;4999773;28;20168;-70
2023/10/20 08:13:21;;;;;;;4.70;4.30;;;18.40;77.10;;;;;;4999605;28;20210;-69
2023/10/20 08:15:47;;;;;;;4.53;4.13;;;18.40;77.10;;;;;;5015849;28;20175;-69
2023/10/20 08:18:13;;;;;;;4.43;4.07;;;18.40;77.10;;;;;;5015603;28;20741;-70
2023/10/20 08:20:39;;;;;;;4.95;4.55;;;18.40;77.10;;;;;;5015014;28;20191;-69
2023/10/20 08:23:05;;;;;;;4.25;3.85;;;18.40;77.10;;;;;;5014374;28;20180;-69
2023/10/20 08:25:31;;;;;;;4.45;4.15;;;18.40;77.10;;;;;;5015584;28;20294;-70
2023/10/20 08:27:57;;;;;;;4.70;4.30;;;18.50;77.20;;;;;;4995498;28;20208;-70
2023/10/20 08:30:24;;;;;;;5.10;4.70;;;18.50;77.20;;;;;;5032403;28;20179;-70
2023/10/20 08:32:50;;;;;;;4.45;4.03;;;18.50;77.20;;;;;;5030781;28;20198;-69
2023/10/20 08:35:15;;;;;;;4.68;4.25;;;18.40;77.10;;;;;;5015626;28;20191;-70
2023/10/20 08:37:41;;;;;;;5.35;4.95;;;18.40;77.10;;;;;;4998258;28;20184;-70
2023/10/20 08:40:11;;;;;;;4.88;4.47;;;18.50;77.20;;;;;;5031952;28;20187;-70
2023/10/20 08:42:38;;;;;;;5.28;4.88;;;18.40;77.10;;;;;;5014257;28;20187;-69
2023/10/20 08:45:10;;;;;;;6.15;5.20;;;18.50;77.20;;;;;;5031876;28;20678;-69
2023/10/20 08:47:37;;;;;;;4.90;4.40;;;18.50;77.20;;;;;;5014625;28;20214;-70
2023/10/20 08:50:07;;;;;;;4.78;4.43;;;18.50;77.20;;;;;;5015045;28;20198;-69
2023/10/20 08:52:33;;;;;;;5.57;5.07;;;18.50;77.20;;;;;;5014433;28;20191;-70
2023/10/20 08:54:58;;;;;;;5.00;4.60;;;18.50;77.20;;;;;;5014532;28;20211;-70
2023/10/20 08:57:26;;;;;;;5.68;5.18;;;18.50;77.20;;;;;;5014850;28;20194;-70
2023/10/20 08:59:52;;;;;;;5.15;4.75;;;18.50;77.20;;;;;;5031974;28;20191;-70
2023/10/20 09:02:18;;;;;;;5.35;4.85;;;18.50;77.20;;;;;;5031562;28;20689;-70
2023/10/20 09:04:51;;;;;;;5.25;4.85;;;18.40;77.10;;;;;;5014345;28;20262;-70
2023/10/20 09:07:17;;;;;;;5.22;4.82;;;18.50;77.20;;;;;;5014088;28;20303;-70
2023/10/20 09:09:43;;;;;;;5.18;4.68;;;18.50;77.20;;;;;;4997311;28;20187;-69
2023/10/20 09:12:11;;;;;;;4.90;4.40;;;18.50;77.20;;;;;;5048117;28;20186;-69
2023/10/20 09:14:40;;;;;;;5.05;4.55;;;18.50;77.20;;;;;;5046483;28;20257;-70
2023/10/20 09:17:08;;;;;;;5.05;4.65;;;18.50;77.20;;;;;;5019447;28;20196;-70
2023/10/20 09:19:36;;;;;;;5.25;4.85;;;18.40;77.10;;;;;;5018757;28;20226;-69
2023/10/20 09:22:02;;;;;;;5.40;4.90;;;18.50;77.20;;;;;;5016744;28;20183;-70
2023/10/20 09:24:31;;;;;;;5.38;4.90;;;18.50;77.20;;;;;;5010495;28;20353;-69
2023/10/20 09:26:59;;;;;;;5.05;4.65;;;18.40;77.10;;;;;;5021220;28;20218;-70
2023/10/20 09:29:30;;;;;;;5.18;4.68;;;18.50;77.20;;;;;;5021724;28;20183;-70
2023/10/20 09:32:00;;;;;;;5.22;4.82;;;18.50;77.20;;;;;;5029036;28;20260;-69
2023/10/20 09:34:26;;;;;;;5.25;4.75;;;18.50;77.20;;;;;;5005363;28;20204;-69
2023/10/20 09:36:56;;;;;;;5.55;5.05;;;18.50;77.20;;;;;;5005192;28;20195;-69
2023/10/20 09:39:39;;;;;;;5.30;4.80;;;18.50;77.20;;;;;;5005606;28;20253;-69
2023/10/20 09:42:06;;;;;;;5.43;4.93;;;18.50;77.20;;;;;;5030616;28;20210;-69
2023/10/20 09:44:45;;;;;;;5.03;4.63;;;18.50;77.20;;;;;;5017314;28;20274;-69
2023/10/20 09:47:27;;;;;;;5.43;5.03;;;18.50;77.20;;;;;;5020551;28;20208;-69
2023/10/20 09:49:54;;;;;;;5.38;4.95;;;18.50;77.20;;;;;;5032741;28;20548;-69
2023/10/20 09:52:20;;;;;;;5.15;4.75;;;18.50;77.10;;;;;;5031658;28;20614;-68
2023/10/20 09:54:50;;;;;;;4.95;4.55;;;18.50;77.20;;;;;;5021231;28;20207;-69
2023/10/20 09:57:21;;;;;;;4.97;4.57;;;18.60;77.30;;;;;;5022553;28;20222;-69
2023/10/20 09:59:53;;;;;;;5.93;5.32;;;18.60;77.30;;;;;;5022379;28;20645;-69
2023/10/20 10:02:31;;;;;;;5.20;4.80;;;18.60;77.30;;;;;;5031274;28;20201;-69
2023/10/20 10:04:57;;;;;;;5.38;4.88;;;18.60;77.30;;;;;;5005892;28;20727;-69
2023/10/20 10:07:34;;;;;;;5.20;4.80;;;18.60;77.30;;;;;;5030711;28;20271;-69
2023/10/20 10:10:02;;;;;;;5.05;4.65;;;18.60;77.30;;;;;;4994227;28;20574;-70
2023/10/20 10:12:29;;;;;;;5.25;4.80;;;18.60;77.30;;;;;;5024639;28;20213;-69
2023/10/20 10:15:14;;;;;;;5.20;4.80;;;18.60;77.30;;;;;;5015161;28;20247;-69
2023/10/20 10:17:52;;;;;;;4.85;4.45;;;18.60;77.30;;;;;;5018512;28;20191;-69
2023/10/20 10:20:26;;;;;;;5.13;4.72;;;18.60;77.40;;;;;;5038640;28;20190;-69
2023/10/20 10:23:05;;;;;;;5.45;4.80;;;18.60;77.30;;;;;;5013480;28;20270;-69
2023/10/20 10:25:36;;;;;;;4.32;4.03;;;18.60;77.30;;;;;;5027400;28;20681;-69
2023/10/20 10:28:13;;;;;;;4.55;4.25;;;18.60;77.30;;;;;;5011839;28;20263;-70
2023/10/20 10:30:40;;;;;;;5.05;4.65;;;18.60;77.30;;;;;;5014946;28;20178;-70
2023/10/20 10:33:08;;;;;;;5.40;4.90;;;18.60;77.30;;;;;;5045471;28;20179;-69
2023/10/20 10:35:36;;;;;;;4.82;4.43;;;18.70;77.50;;;;;;5037048;28;20221;-70
2023/10/20 10:38:06;;;;;;;5.32;4.82;;;18.60;77.30;;;;;;5045283;28;20191;-70
2023/10/20 10:40:32;;;;;;;5.07;4.68;;;18.70;77.50;;;;;;5020328;28;20190;-70
2023/10/20 10:42:58;;;;;;;4.85;4.45;;;18.60;77.50;;;;;;5052036;28;20182;-69
2023/10/20 10:45:34;;;;;;;4.63;4.22;;;18.60;77.60;;;;;;5050821;28;20190;-72
2023/10/20 10:48:14;;;;;;;4.38;4.05;;;18.70;77.80;;;;;;5000546;28;20705;-70
2023/10/20 10:50:45;;;;;;;4.20;3.90;;;18.60;77.70;;;;;;5028469;28;20267;-69
2023/10/20 10:53:13;;;;;;;4.97;4.57;;;18.60;77.60;;;;;;5021612;28;20200;-69
2023/10/20 10:55:40;;;;;;;4.00;3.60;;;18.60;77.70;;;;;;5017586;28;20557;-69
2023/10/20 10:58:13;;;;;;;4.80;4.40;;;18.70;77.80;;;;;;5000263;28;20196;-70
2023/10/20 11:00:44;;;;;;;4.35;3.95;;;18.70;77.80;;;;;;5021046;28;20239;-70
2023/10/20 11:03:11;;;;;;;4.50;3.63;;;18.70;77.90;;;;;;5018104;28;20212;-70
2023/10/20 11:05:38;;;;;;;4.20;3.90;;;18.70;77.90;;;;;;5039422;28;20171;-70
2023/10/20 11:08:07;;;;;;;4.20;3.90;;;18.60;78.00;;;;;;5006794;28;20216;-69
2023/10/20 11:10:42;;;;;;;4.20;3.90;;;18.70;78.00;;;;;;5009561;28;20185;-70
2023/10/20 11:13:13;;;;;;;4.65;3.97;;;18.70;78.00;;;;;;5016349;28;20215;-69
2023/10/20 11:15:43;;;;;;;5.80;3.50;;;18.60;78.00;;;;;;5029693;28;20187;-70
2023/10/20 11:18:12;;;;;;;5.00;4.13;;;18.70;78.40;;;;;;5012829;28;20182;-70
2023/10/20 11:20:43;;;;;;;4.25;3.85;;;18.70;78.00;;;;;;5027456;28;20179;-70
2023/10/20 11:23:12;;;;;;;4.10;3.80;;;18.70;78.20;;;;;;5013846;28;20596;-69
2023/10/20 11:25:40;;;;;;;4.18;3.78;;;18.70;78.20;;;;;;5024015;28;20201;-70
2023/10/20 11:28:07;;;;;;;3.80;3.40;;;18.70;78.20;;;;;;5010316;28;20202;-69
2023/10/20 11:30:38;;;;;;;5.03;3.20;;;18.70;78.30;;;;;;5043803;28;20229;-69
2023/10/20 11:33:04;;;;;;;4.22;3.83;;;18.70;78.20;;;;;;5003155;28;20727;-69
2023/10/20 11:35:30;;;;;;;4.20;3.40;;;18.70;78.30;;;;;;5048221;28;20191;-70
2023/10/20 11:37:57;;;;;;;3.95;3.40;;;18.70;78.30;;;;;;5021718;28;20181;-70
2023/10/20 11:40:27;;;;;;;3.55;3.25;;;18.70;78.30;;;;;;5022510;28;20194;-70
2023/10/20 11:42:54;;;;;;;3.55;3.25;;;18.70;79.10;;;;;;4995957;28;20195;-69
2023/10/20 11:45:20;;;;;;;4.45;3.20;;;18.70;78.50;;;;;;5032656;28;20187;-70
2023/10/20 11:47:46;;;;;;;4.40;3.08;;;18.70;78.40;;;;;;5020155;28;20208;-69
2023/10/20 11:50:13;;;;;;;3.28;2.97;;;18.70;78.30;;;;;;5005761;28;20176;-70
2023/10/20 11:52:40;;;;;;;3.85;3.42;;;18.70;78.40;;;;;;5027870;28;20183;-70
2023/10/20 11:55:08;;;;;;;3.55;3.25;;;18.70;78.40;;;;;;5003046;28;20230;-70
2023/10/20 11:57:35;;;;;;;3.35;3.08;;;18.70;78.40;;;;;;5021542;28;20270;-69
2023/10/20 12:00:07;;;;;;;3.75;3.33;;;18.70;78.40;;;;;;5045215;28;20281;-70
2023/10/20 12:02:40;;;;;;;3.17;2.97;;;18.70;78.50;;;;;;5045596;28;20273;-70
2023/10/20 12:05:08;;;;;;;3.55;3.25;;;18.70;78.60;;;;;;5042066;28;20225;-70
2023/10/20 12:07:34;;;;;;;3.00;2.80;;;18.70;78.40;;;;;;5032812;28;20242;-70
2023/10/20 12:10:00;;;;;;;3.45;2.75;;;18.70;78.40;;;;;;5039331;28;20193;-70
2023/10/20 12:12:26;;;;;;;3.13;2.83;;;18.70;78.40;;;;;;5030184;28;20176;-70
2023/10/20 12:14:52;;;;;;;3.55;2.67;;;18.70;78.40;;;;;;5003557;28;20195;-70
2023/10/20 12:17:18;;;;;;;2.92;2.70;;;18.70;78.30;;;;;;5017557;28;20212;-69
2023/10/20 12:19:43;;;;;;;2.88;2.58;;;18.70;78.30;;;;;;5024678;28;20181;-70
2023/10/20 12:22:09;;;;;;;2.92;2.72;;;18.70;78.30;;;;;;5025528;28;20254;-69
2023/10/20 12:24:35;;;;;;;2.83;2.63;;;18.70;78.30;;;;;;5025187;28;20207;-69
2023/10/20 12:27:03;;;;;;;2.63;2.42;;;18.70;78.30;;;;;;5023085;28;20215;-70
2023/10/20 12:29:29;;;;;;;2.60;2.40;;;18.70;78.30;;;;;;5022002;28;20176;-70
2023/10/20 12:31:56;;;;;;;2.80;2.60;;;18.70;78.30;;;;;;4999465;28;20213;-69
2023/10/20 12:34:22;;;;;;;2.08;1.98;;;18.70;78.30;;;;;;5020697;28;20222;-70
2023/10/20 12:36:48;;;;;;;2.80;2.58;;;18.70;78.50;;;;;;5015839;28;20230;-70
2023/10/20 12:39:20;;;;;;;2.75;2.50;;;18.70;78.40;;;;;;5005586;28;20206;-70
2023/10/20 12:41:48;;;;;;;2.47;2.15;;;18.70;78.40;;;;;;5041489;28;20650;-70
2023/10/20 12:44:14;;;;;;;3.25;2.78;;;18.70;79.10;;;;;;5019963;28;20211;-70
2023/10/20 12:46:41;;;;;;;2.97;2.72;;;18.70;78.30;;;;;;5027794;28;20842;-69
2023/10/20 12:49:06;;;;;;;2.42;2.22;;;18.70;78.30;;;;;;5022788;28;20190;-69
2023/10/20 12:51:33;;;;;;;1.92;1.83;;;18.70;78.20;;;;;;5019720;28;20646;-70
2023/10/20 12:54:01;;;;;;;3.22;2.33;;;18.70;78.20;;;;;;5002774;28;20206;-69
2023/10/20 12:56:28;;;;;;;2.85;2.40;;;18.70;78.70;;;;;;5023105;28;20278;-70
2023/10/20 12:58:54;;;;;;;2.92;2.70;;;18.70;79.00;;;;;;5031267;28;20186;-69
2023/10/20 13:01:21;;;;;;;2.45;2.25;;;18.70;78.40;;;;;;5014426;28;20600;-70
2023/10/20 13:03:51;;;;;;;4.63;2.40;;;18.70;78.20;;;;;;5011930;28;20265;-70
2023/10/20 13:06:16;;;;;;;2.53;2.33;;;18.70;78.20;;;;;;5003012;28;20670;-69
2023/10/20 13:08:46;;;;;;;2.35;2.10;;;18.70;78.00;;;;;;5021553;28;20188;-69
2023/10/20 13:11:13;;;;;;;2.80;2.40;;;18.70;77.90;;;;;;5022104;28;20238;-69
2023/10/20 13:13:40;;;;;;;2.20;2.00;;;18.70;78.10;;;;;;5015902;28;20302;-70
2023/10/20 13:16:09;;;;;;;2.30;2.20;;;18.70;78.10;;;;;;5027289;28;20183;-70
2023/10/20 13:18:37;;;;;;;2.30;2.10;;;18.70;78.00;;;;;;5037311;28;20236;-70
2023/10/20 13:21:07;;;;;;;2.28;2.00;;;18.70;77.90;;;;;;5010995;28;20220;-70
2023/10/20 13:23:33;;;;;;;2.45;2.10;;;18.70;77.90;;;;;;5020030;28;20211;-69